This is the latest recevied weather packets stored in our database for station/object JF7BTK-10. If no packets are shown the sender has not sent any weather packets the latest 1 day(s).
| Time | Temp. | Humidity | Pressure | Rain* | Wind** | Luminosity | Snow |
|---|---|---|---|---|---|---|---|
| 1778083300 | 10.56° C | 76% | 1009.6 hPa | 0 mm | - | - | - |
| 1778081500 | 11.11° C | 75% | 1009.6 hPa | 0 mm | - | - | - |
| 1778077899 | 11.67° C | 76% | 1009.9 hPa | 0 mm | - | - | - |
| 1778076999 | 11.11° C | 74% | 1009.9 hPa | 0 mm | - | - | - |
| 1778073399 | 12.22° C | 71% | 1009.7 hPa | 0 mm | - | - | - |
| 1778071598 | 12.22° C | 71% | 1010 hPa | 0 mm | - | - | - |
| 1778068900 | 13.89° C | 66% | 1010.7 hPa | 0 mm | - | - | - |
| 1778067099 | 14.44° C | 64% | 1010.7 hPa | 0 mm | - | - | - |
| 1778060800 | 17.22° C | 59% | 1010.7 hPa | 0 mm | - | - | - |
| 1778059898 | 17.78° C | 51% | 1010.8 hPa | 0 mm | - | - | - |
| 1778058998 | 18.33° C | 51% | 1010.8 hPa | 0 mm | - | - | - |
| 1778058100 | 18.33° C | 50% | 1010.9 hPa | 0 mm | - | - | - |
| 1778057199 | 19.44° C | 49% | 1010.7 hPa | 0 mm | - | - | - |
| 1778055398 | 19.44° C | 45% | 1011 hPa | 0 mm | - | - | - |
| 1778051799 | 21.67° C | 42% | 1010.8 hPa | 0 mm | - | - | - |
| 1778050000 | 21.67° C | 40% | 1010.9 hPa | 0 mm | - | - | - |
| 1778048200 | 21.67° C | 40% | 1010.6 hPa | 0 mm | - | - | - |
| 1778045500 | 22.22° C | 40% | 1010.7 hPa | 0 mm | - | - | - |
| 1778043699 | 22.22° C | 39% | 1010.9 hPa | 0 mm | - | - | - |
| 1778042800 | 22.22° C | 38% | 1010.8 hPa | 0 mm | - | - | - |
| 1778041900 | 22.22° C | 40% | 1011 hPa | 0 mm | - | - | - |
| 1778039200 | 22.22° C | 38% | 1011.3 hPa | 0 mm | - | - | - |
| 1778038300 | 22.22° C | 37% | 1011.8 hPa | 0 mm | - | - | - |
| 1778037399 | 21.67° C | 40% | 1012.1 hPa | 0 mm | - | - | - |
| 1778035600 | 21.67° C | 40% | 1012.4 hPa | 0 mm | - | - | - |
* Rain latest hour (hover to see other rain measurements)
** Current wind speed in m/s (hover to see current wind gust speed)